Time,TemperatureF,DewpointF,PressureIn,WindDirection,WindDirectionDegrees,WindSpeedMPH,WindSpeedGustMPH,Humidity,HourlyPrecipIn,Conditions,Clouds,dailyrainin,SoftwareType,DateUTC
2013-04-26 00:03:00,34.0,29.0,30.24,SE,132,0.0,2.0,81,0.00,,,0.02,,2013-04-26 04:03:00,
2013-04-26 00:12:00,34.0,29.0,30.24,SE,132,0.0,2.0,81,0.00,,,0.02,,2013-04-26 04:12:00,
2013-04-26 00:23:00,34.0,29.0,30.24,ESE,123,0.0,2.0,81,0.00,,,0.02,,2013-04-26 04:23:00,
2013-04-26 00:32:00,34.0,29.0,30.25,ESE,109,0.0,2.0,81,0.00,,,0.02,,2013-04-26 04:32:00,
2013-04-26 00:43:00,34.0,29.0,30.25,ESE,109,0.0,2.0,81,0.00,,,0.02,,2013-04-26 04:43:00,
2013-04-26 00:53:00,33.0,28.0,30.25,SSE,165,0.0,2.0,82,0.00,,,0.02,,2013-04-26 04:53:00,
2013-04-26 01:02:00,33.0,28.0,30.24,ESE,115,0.0,3.0,83,0.00,,,0.00,,2013-04-26 05:02:00,
2013-04-26 01:13:00,33.0,28.0,30.24,ESE,115,0.0,3.0,83,0.00,,,0.00,,2013-04-26 05:13:00,
2013-04-26 01:22:00,33.0,28.0,30.24,ESE,115,0.0,3.0,83,0.00,,,0.00,,2013-04-26 05:22:00,
2013-04-26 01:32:00,32.0,27.0,30.24,ESE,110,0.0,4.0,83,0.00,,,0.00,,2013-04-26 05:32:00,
2013-04-26 01:42:00,32.0,27.0,30.24,ESE,110,0.0,4.0,83,0.00,,,0.00,,2013-04-26 05:42:00,
2013-04-26 01:52:00,32.0,28.0,30.24,ESE,110,0.0,1.0,84,0.00,,,0.00,,2013-04-26 05:52:00,
2013-04-26 02:02:00,31.0,27.0,30.25,ESE,110,0.0,1.0,85,0.00,,,0.00,,2013-04-26 06:02:00,
2013-04-26 02:12:00,31.0,27.0,30.25,ESE,110,0.0,1.0,85,0.00,,,0.00,,2013-04-26 06:12:00,
2013-04-26 02:22:00,31.0,27.0,30.24,ESE,110,0.0,1.0,85,0.00,,,0.00,,2013-04-26 06:22:00,
2013-04-26 02:32:00,31.0,27.0,30.25,ESE,110,0.0,1.0,85,0.00,,,0.00,,2013-04-26 06:32:00,
2013-04-26 02:42:00,31.0,27.0,30.25,ESE,110,0.0,1.0,85,0.00,,,0.00,,2013-04-26 06:42:00,
2013-04-26 02:52:00,31.0,27.0,30.25,ESE,110,0.0,1.0,86,0.00,,,0.00,,2013-04-26 06:52:00,
2013-04-26 03:01:00,30.0,27.0,30.25,ESE,110,0.0,1.0,87,0.00,,,0.00,,2013-04-26 07:01:00,
2013-04-26 03:11:00,30.0,27.0,30.25,ESE,110,0.0,1.0,87,0.00,,,0.00,,2013-04-26 07:11:00,
2013-04-26 03:22:00,30.0,27.0,30.25,ESE,110,0.0,1.0,87,0.00,,,0.00,,2013-04-26 07:22:00,
2013-04-26 03:32:00,30.0,27.0,30.25,ESE,103,1.0,3.0,87,0.00,,,0.00,,2013-04-26 07:32:00,
2013-04-26 03:42:00,30.0,27.0,30.25,ESE,103,1.0,3.0,87,0.00,,,0.00,,2013-04-26 07:42:00,
2013-04-26 03:52:00,30.0,27.0,30.26,ESE,103,0.0,1.0,87,0.00,,,0.00,,2013-04-26 07:52:00,
2013-04-26 04:03:00,30.0,27.0,30.27,ESE,103,0.0,1.0,87,0.00,,,0.00,,2013-04-26 08:03:00,
2013-04-26 04:11:00,30.0,27.0,30.27,ESE,103,0.0,1.0,87,0.00,,,0.00,,2013-04-26 08:11:00,
2013-04-26 04:22:00,29.0,26.0,30.27,ESE,103,0.0,1.0,88,0.00,,,0.00,,2013-04-26 08:22:00,
2013-04-26 04:32:00,30.0,27.0,30.28,ESE,103,0.0,0.0,88,0.00,,,0.00,,2013-04-26 08:32:00,
2013-04-26 04:42:00,30.0,27.0,30.28,ESE,103,0.0,0.0,88,0.00,,,0.00,,2013-04-26 08:42:00,
2013-04-26 04:52:00,29.0,26.0,30.28,ESE,103,0.0,0.0,88,0.00,,,0.00,,2013-04-26 08:52:00,
2013-04-26 05:02:00,29.0,26.0,30.29,ESE,103,0.0,0.0,89,0.00,,,0.00,,2013-04-26 09:02:00,
2013-04-26 05:11:00,29.0,26.0,30.29,ESE,103,0.0,0.0,89,0.00,,,0.00,,2013-04-26 09:11:00,
2013-04-26 05:22:00,29.0,26.0,30.29,ESE,103,0.0,0.0,89,0.00,,,0.00,,2013-04-26 09:22:00,
2013-04-26 05:33:00,29.0,26.0,30.32,North,5,1.0,4.0,90,0.00,,,0.00,,2013-04-26 09:33:00,
2013-04-26 05:43:00,29.0,26.0,30.32,North,5,1.0,4.0,90,0.00,,,0.00,,2013-04-26 09:43:00,
2013-04-26 05:53:00,30.0,27.0,30.32,North,355,0.0,3.0,89,0.00,,,0.00,,2013-04-26 09:53:00,
2013-04-26 06:03:00,30.0,27.0,30.32,NNE,29,1.0,3.0,89,0.00,,,0.00,,2013-04-26 10:03:00,
2013-04-26 06:12:00,30.0,27.0,30.32,NNE,29,1.0,3.0,89,0.00,,,0.00,,2013-04-26 10:12:00,
2013-04-26 06:23:00,30.0,27.0,30.34,NNE,13,1.0,6.0,88,0.00,,,0.00,,2013-04-26 10:23:00,
2013-04-26 06:33:00,31.0,27.0,30.35,NW,323,0.0,3.0,86,0.00,,,0.00,,2013-04-26 10:33:00,
2013-04-26 06:42:00,31.0,27.0,30.35,NW,323,0.0,3.0,86,0.00,,,0.00,,2013-04-26 10:42:00,
2013-04-26 06:52:00,31.0,27.0,30.35,NNW,340,1.0,4.0,86,0.00,,,0.00,,2013-04-26 10:52:00,
2013-04-26 07:02:00,31.0,27.0,30.36,NNW,342,1.0,5.0,86,0.00,,,0.00,,2013-04-26 11:02:00,
2013-04-26 07:11:00,31.0,27.0,30.36,NNW,342,1.0,5.0,86,0.00,,,0.00,,2013-04-26 11:11:00,
2013-04-26 07:22:00,31.0,27.0,30.36,NNW,342,1.0,5.0,86,0.00,,,0.00,,2013-04-26 11:22:00,
2013-04-26 07:32:00,32.0,28.0,30.37,North,360,0.0,1.0,86,0.00,,,0.00,,2013-04-26 11:32:00,
2013-04-26 07:42:00,32.0,28.0,30.37,North,360,0.0,1.0,86,0.00,,,0.00,,2013-04-26 11:42:00,
2013-04-26 07:52:00,32.0,28.0,30.37,NNW,336,1.0,3.0,86,0.00,,,0.00,,2013-04-26 11:52:00,
2013-04-26 08:02:00,34.0,30.0,30.37,North,355,3.0,5.0,84,0.00,,,0.00,,2013-04-26 12:02:00,
2013-04-26 08:12:00,34.0,30.0,30.37,North,355,3.0,5.0,84,0.00,,,0.00,,2013-04-26 12:12:00,
2013-04-26 08:22:00,36.0,31.0,30.38,North,351,2.0,7.0,82,0.00,,,0.00,,2013-04-26 12:22:00,
2013-04-26 08:32:00,38.0,32.0,30.38,NNW,342,2.0,5.0,80,0.00,,,0.00,,2013-04-26 12:32:00,
2013-04-26 08:42:00,38.0,32.0,30.38,NNW,342,2.0,5.0,80,0.00,,,0.00,,2013-04-26 12:42:00,
2013-04-26 08:50:00,41.0,34.0,30.39,NE,35,2.0,6.0,75,0.00,,,0.00,,2013-04-26 12:50:00,
2013-04-26 08:52:00,39.0,33.0,30.38,NNW,339,2.0,5.0,78,0.00,,,0.00,,2013-04-26 12:52:00,
2013-04-26 09:01:00,40.0,33.0,30.39,WNW,288,3.0,6.0,76,0.00,,,0.00,,2013-04-26 13:01:00,
2013-04-26 09:11:00,40.0,33.0,30.39,WNW,288,3.0,6.0,76,0.00,,,0.00,,2013-04-26 13:11:00,
2013-04-26 09:22:00,41.0,34.0,30.39,NE,35,2.0,6.0,75,0.00,,,0.00,,2013-04-26 13:22:00,
2013-04-26 09:32:00,41.0,34.0,30.39,NE,35,2.0,6.0,75,0.00,,,0.00,,2013-04-26 13:32:00,
2013-04-26 09:42:00,41.0,34.0,30.39,NE,35,2.0,6.0,75,0.00,,,0.00,,2013-04-26 13:42:00,
2013-04-26 10:02:00,43.0,33.0,30.39,NNW,332,3.0,9.0,68,0.00,,,0.00,,2013-04-26 14:02:00,
2013-04-26 10:11:00,43.0,33.0,30.39,NNW,332,3.0,9.0,68,0.00,,,0.00,,2013-04-26 14:11:00,
2013-04-26 10:21:00,45.0,33.0,30.39,WNW,292,3.0,7.0,63,0.00,,,0.00,,2013-04-26 14:21:00,
2013-04-26 10:32:00,45.0,34.0,30.39,NW,313,3.0,8.0,64,0.00,,,0.00,,2013-04-26 14:32:00,
2013-04-26 10:42:00,45.0,34.0,30.39,NW,313,3.0,8.0,64,0.00,,,0.00,,2013-04-26 14:42:00,
2013-04-26 10:52:00,46.0,33.0,30.39,NNW,327,2.0,9.0,61,0.00,,,0.00,,2013-04-26 14:52:00,
2013-04-26 11:01:00,47.0,33.0,30.38,NW,326,3.0,11.0,58,0.00,,,0.00,,2013-04-26 15:01:00,
2013-04-26 11:12:00,47.0,33.0,30.38,NW,326,3.0,11.0,58,0.00,,,0.00,,2013-04-26 15:12:00,
2013-04-26 11:22:00,47.0,31.0,30.39,WNW,301,6.0,11.0,53,0.00,,,0.00,,2013-04-26 15:22:00,
2013-04-26 11:33:00,48.0,31.0,30.38,NW,310,3.0,8.0,51,0.00,,,0.00,,2013-04-26 15:33:00,
2013-04-26 11:43:00,48.0,31.0,30.38,NW,310,3.0,8.0,51,0.00,,,0.00,,2013-04-26 15:43:00,
2013-04-26 11:53:00,49.0,30.0,30.38,NNW,332,3.0,9.0,48,0.00,,,0.00,,2013-04-26 15:53:00,
2013-04-26 12:03:00,49.0,30.0,30.38,SSE,153,0.0,7.0,47,0.00,,,0.00,,2013-04-26 16:03:00,
2013-04-26 12:13:00,49.0,30.0,30.38,SSE,153,0.0,7.0,47,0.00,,,0.00,,2013-04-26 16:13:00,
2013-04-26 12:23:00,50.0,28.0,30.37,NNW,342,3.0,7.0,43,0.00,,,0.00,,2013-04-26 16:23:00,
2013-04-26 12:33:00,51.0,29.0,30.37,WNW,302,3.0,10.0,43,0.00,,,0.00,,2013-04-26 16:33:00,
2013-04-26 12:42:00,51.0,29.0,30.37,WNW,302,3.0,10.0,43,0.00,,,0.00,,2013-04-26 16:42:00,
2013-04-26 12:52:00,52.0,28.0,30.37,NW,320,3.0,9.0,40,0.00,,,0.00,,2013-04-26 16:52:00,
2013-04-26 13:02:00,52.0,28.0,30.37,NW,314,6.0,11.0,40,0.00,,,0.00,,2013-04-26 17:02:00,
2013-04-26 13:12:00,52.0,28.0,30.37,NW,314,6.0,11.0,40,0.00,,,0.00,,2013-04-26 17:12:00,
2013-04-26 13:22:00,52.0,28.0,30.36,East,101,3.0,9.0,40,0.00,,,0.00,,2013-04-26 17:22:00,
2013-04-26 13:32:00,53.0,27.0,30.36,NNE,14,6.0,10.0,37,0.00,,,0.00,,2013-04-26 17:32:00,
2013-04-26 13:42:00,53.0,27.0,30.36,NNE,14,6.0,10.0,37,0.00,,,0.00,,2013-04-26 17:42:00,
2013-04-26 13:52:00,53.0,27.0,30.36,ENE,65,5.0,10.0,37,0.00,,,0.00,,2013-04-26 17:52:00,
2013-04-26 14:02:00,53.0,27.0,30.35,SSW,194,5.0,13.0,37,0.00,,,0.00,,2013-04-26 18:02:00,
2013-04-26 14:12:00,53.0,27.0,30.35,SSW,194,5.0,13.0,37,0.00,,,0.00,,2013-04-26 18:12:00,
2013-04-26 14:22:00,55.0,29.0,30.35,NW,321,5.0,10.0,36,0.00,,,0.00,,2013-04-26 18:22:00,
2013-04-26 14:33:00,55.0,26.0,30.35,WNW,284,5.0,13.0,33,0.00,,,0.00,,2013-04-26 18:33:00,
2013-04-26 14:42:00,55.0,26.0,30.35,WNW,284,5.0,13.0,33,0.00,,,0.00,,2013-04-26 18:42:00,
2013-04-26 14:52:00,55.0,29.0,30.35,NW,311,1.0,6.0,37,0.00,,,0.00,,2013-04-26 18:52:00,
2013-04-26 15:02:00,55.0,27.0,30.35,WNW,300,1.0,9.0,34,0.00,,,0.00,,2013-04-26 19:02:00,
2013-04-26 15:12:00,55.0,27.0,30.35,WNW,300,1.0,9.0,34,0.00,,,0.00,,2013-04-26 19:12:00,
2013-04-26 15:22:00,54.0,26.0,30.34,NW,315,1.0,4.0,33,0.00,,,0.00,,2013-04-26 19:22:00,
2013-04-26 15:32:00,55.0,26.0,30.34,NNE,12,2.0,10.0,32,0.00,,,0.00,,2013-04-26 19:32:00,
2013-04-26 15:42:00,55.0,26.0,30.34,NNE,12,2.0,10.0,32,0.00,,,0.00,,2013-04-26 19:42:00,
2013-04-26 15:52:00,56.0,26.0,30.34,ENE,70,4.0,9.0,31,0.00,,,0.00,,2013-04-26 19:52:00,
2013-04-26 16:02:00,57.0,27.0,30.34,North,355,3.0,10.0,31,0.00,,,0.00,,2013-04-26 20:02:00,
2013-04-26 16:11:00,57.0,27.0,30.34,North,355,3.0,10.0,31,0.00,,,0.00,,2013-04-26 20:11:00,
2013-04-26 16:22:00,56.0,26.0,30.34,SW,229,3.0,10.0,31,0.00,,,0.00,,2013-04-26 20:22:00,
2013-04-26 16:32:00,56.0,27.0,30.34,NW,306,5.0,11.0,32,0.00,,,0.00,,2013-04-26 20:32:00,
2013-04-26 16:42:00,56.0,27.0,30.34,NW,306,5.0,11.0,32,0.00,,,0.00,,2013-04-26 20:42:00,
2013-04-26 16:52:00,56.0,26.0,30.34,NNW,346,5.0,13.0,31,0.00,,,0.00,,2013-04-26 20:52:00,
2013-04-26 17:02:00,56.0,27.0,30.34,WSW,246,4.0,11.0,32,0.00,,,0.00,,2013-04-26 21:02:00,
2013-04-26 17:11:00,56.0,27.0,30.34,WSW,246,4.0,11.0,32,0.00,,,0.00,,2013-04-26 21:11:00,
2013-04-26 17:22:00,56.0,29.0,30.34,WSW,252,3.0,7.0,35,0.00,,,0.00,,2013-04-26 21:22:00,
2013-04-26 17:33:00,55.0,28.0,30.34,WNW,301,5.0,10.0,35,0.00,,,0.00,,2013-04-26 21:33:00,
2013-04-26 17:42:00,55.0,28.0,30.34,WNW,301,5.0,10.0,35,0.00,,,0.00,,2013-04-26 21:42:00,
2013-04-26 17:53:00,55.0,29.0,30.34,North,360,5.0,10.0,36,0.00,,,0.00,,2013-04-26 21:53:00,
2013-04-26 18:03:00,54.0,28.0,30.35,NNW,333,4.0,9.0,36,0.00,,,0.00,,2013-04-26 22:03:00,
2013-04-26 18:13:00,54.0,28.0,30.35,NNW,333,4.0,9.0,36,0.00,,,0.00,,2013-04-26 22:13:00,
2013-04-26 18:23:00,54.0,28.0,30.36,NE,41,3.0,13.0,36,0.00,,,0.00,,2013-04-26 22:23:00,
2013-04-26 18:33:00,53.0,27.0,30.36,North,9,6.0,10.0,37,0.00,,,0.00,,2013-04-26 22:33:00,
2013-04-26 18:42:00,53.0,27.0,30.36,North,9,6.0,10.0,37,0.00,,,0.00,,2013-04-26 22:42:00,
2013-04-26 18:52:00,53.0,27.0,30.36,NNW,348,5.0,11.0,37,0.00,,,0.00,,2013-04-26 22:52:00,
2013-04-26 19:02:00,52.0,27.0,30.37,NNE,20,6.0,10.0,37,0.00,,,0.00,,2013-04-26 23:02:00,
2013-04-26 19:12:00,52.0,27.0,30.37,NNE,20,6.0,10.0,37,0.00,,,0.00,,2013-04-26 23:12:00,
2013-04-26 19:21:00,51.0,26.0,30.37,North,5,6.0,11.0,38,0.00,,,0.00,,2013-04-26 23:21:00,
2013-04-26 19:32:00,50.0,27.0,30.37,West,273,5.0,11.0,40,0.00,,,0.00,,2013-04-26 23:32:00,
2013-04-26 19:42:00,50.0,27.0,30.37,West,273,5.0,11.0,40,0.00,,,0.00,,2013-04-26 23:42:00,
2013-04-26 19:52:00,49.0,27.0,30.38,NNW,342,3.0,9.0,42,0.00,,,0.00,,2013-04-26 23:52:00,
2013-04-26 20:01:00,48.0,27.0,30.39,WSW,242,4.0,9.0,44,0.00,,,0.00,,2013-04-27 00:01:00,
2013-04-26 20:11:00,48.0,27.0,30.39,WSW,242,4.0,9.0,44,0.00,,,0.00,,2013-04-27 00:11:00,
2013-04-26 20:21:00,47.0,27.0,30.39,NW,310,2.0,7.0,46,0.00,,,0.00,,2013-04-27 00:21:00,
2013-04-26 20:32:00,46.0,27.0,30.39,NW,325,1.0,7.0,48,0.00,,,0.00,,2013-04-27 00:32:00,
2013-04-26 20:42:00,46.0,27.0,30.39,NW,325,1.0,7.0,48,0.00,,,0.00,,2013-04-27 00:42:00,
2013-04-26 20:51:00,45.0,27.0,30.40,WSW,257,2.0,7.0,50,0.00,,,0.00,,2013-04-27 00:51:00,
2013-04-26 21:01:00,45.0,28.0,30.40,West,277,2.0,7.0,52,0.00,,,0.00,,2013-04-27 01:01:00,
2013-04-26 21:12:00,45.0,28.0,30.40,West,277,2.0,7.0,52,0.00,,,0.00,,2013-04-27 01:12:00,
2013-04-26 21:21:00,44.0,28.0,30.40,NW,314,2.0,7.0,52,0.00,,,0.00,,2013-04-27 01:21:00,
2013-04-26 21:32:00,43.0,28.0,30.41,NW,308,2.0,6.0,54,0.00,,,0.00,,2013-04-27 01:32:00,
2013-04-26 21:42:00,43.0,28.0,30.41,NW,308,2.0,6.0,54,0.00,,,0.00,,2013-04-27 01:42:00,
2013-04-26 21:52:00,42.0,27.0,30.41,North,5,2.0,4.0,56,0.00,,,0.00,,2013-04-27 01:52:00,
2013-04-26 22:02:00,41.0,27.0,30.42,NNW,348,2.0,5.0,58,0.00,,,0.00,,2013-04-27 02:02:00,
2013-04-26 22:11:00,41.0,27.0,30.42,NNW,348,2.0,5.0,58,0.00,,,0.00,,2013-04-27 02:11:00,
2013-04-26 22:22:00,40.0,27.0,30.42,NNW,341,0.0,3.0,59,0.00,,,0.00,,2013-04-27 02:22:00,
2013-04-26 22:32:00,40.0,27.0,30.42,North,355,0.0,3.0,60,0.00,,,0.00,,2013-04-27 02:32:00,
2013-04-26 22:42:00,40.0,27.0,30.42,North,355,0.0,3.0,60,0.00,,,0.00,,2013-04-27 02:42:00,
2013-04-26 22:52:00,39.0,27.0,30.42,North,355,2.0,5.0,62,0.00,,,0.00,,2013-04-27 02:52:00,
2013-04-26 23:02:00,39.0,27.0,30.42,North,350,0.0,2.0,63,0.00,,,0.00,,2013-04-27 03:02:00,
2013-04-26 23:11:00,39.0,27.0,30.42,North,350,0.0,2.0,63,0.00,,,0.00,,2013-04-27 03:11:00,
2013-04-26 23:22:00,39.0,29.0,30.42,NNW,346,0.0,2.0,66,0.00,,,0.00,,2013-04-27 03:22:00,
2013-04-26 23:33:00,38.0,29.0,30.42,NNW,330,0.0,2.0,69,0.00,,,0.00,,2013-04-27 03:33:00,
2013-04-26 23:43:00,38.0,29.0,30.42,NNW,330,0.0,2.0,69,0.00,,,0.00,,2013-04-27 03:43:00,
2013-04-26 23:53:00,37.0,28.0,30.42,NNW,343,2.0,4.0,69,0.00,,,0.00,,2013-04-27 03:53:00,